Time;durP1;ratioP1;P1;durP2;ratioP2;P2;SDS_P1;SDS_P2;PMS_P1;PMS_P2;Temp;Humidity;BMP_temperature;BMP_pressure;BME280_temperature;BME280_humidity;BME280_pressure;Samples;Min_cycle;Max_cycle;Signal;HPM_P1;HPM_P2
2022/02/13 00:04:30;;;;;;;28.60;13.22;;;;;;;-1.03;92.98;101585.52;3560069;80;99502;-88
2022/02/13 00:09:31;;;;;;;28.47;13.67;;;;;;;-1.02;93.12;101584.96;3625558;78;99236;-87
2022/02/13 00:14:33;;;;;;;32.10;13.57;;;;;;;-1.02;93.30;101568.75;3572171;81;99529;-88
2022/02/13 00:19:34;;;;;;;29.50;13.87;;;;;;;-1.03;93.35;101563.09;3621807;79;99283;-88
2022/02/13 00:24:35;;;;;;;28.17;12.23;;;;;;;-1.07;93.23;101554.72;3628609;80;27346;-88
2022/02/13 00:29:36;;;;;;;30.57;12.43;;;;;;;-1.06;93.57;101554.98;3595944;79;99219;-87
2022/02/13 00:34:37;;;;;;;32.13;15.03;;;;;;;-1.09;93.50;101552.02;3597126;79;99034;-87
2022/02/13 00:39:38;;;;;;;31.80;13.47;;;;;;;-1.11;93.75;101544.19;3596247;79;99133;-88
2022/02/13 00:44:39;;;;;;;29.00;12.40;;;;;;;-1.14;93.69;101542.58;3606269;79;99234;-89
2022/02/13 00:49:40;;;;;;;34.70;14.80;;;;;;;-1.18;93.45;101533.39;3603210;79;99121;-88
2022/02/13 00:54:42;;;;;;;29.23;13.27;;;;;;;-1.21;93.64;101520.45;3608174;79;34738;-88
2022/02/13 00:59:42;;;;;;;27.87;12.87;;;;;;;-1.23;94.07;101526.11;3592389;79;99462;-87
2022/02/13 01:04:43;;;;;;;36.10;14.87;;;;;;;-1.24;94.34;101519.09;3602121;79;98318;-88
2022/02/13 01:09:44;;;;;;;34.57;15.07;;;;;;;-1.28;94.16;101513.14;3589634;80;99219;-88
2022/02/13 01:14:45;;;;;;;33.23;13.97;;;;;;;-1.32;94.32;101506.12;3597904;80;99197;-88
2022/02/13 01:19:46;;;;;;;34.07;14.10;;;;;;;-1.33;94.44;101498.30;3595692;79;99086;-88
2022/02/13 01:24:47;;;;;;;35.13;14.60;;;;;;;-1.37;94.60;101495.89;3618281;80;33345;-87
2022/02/13 01:29:47;;;;;;;35.85;16.55;;;;;;;-1.40;94.62;101490.50;3589161;80;98786;-88
2022/02/13 01:34:48;;;;;;;33.20;14.77;;;;;;;-1.43;94.78;101480.23;3612550;79;99129;-88
2022/02/13 01:39:49;;;;;;;38.07;15.27;;;;;;;-1.45;94.93;101467.55;3585108;80;100167;-87
2022/02/13 01:44:52;;;;;;;42.73;16.37;;;;;;;-1.49;94.94;101451.63;3607265;80;99306;-88
2022/02/13 01:49:52;;;;;;;32.67;15.23;;;;;;;-1.51;95.28;101451.09;3591379;80;99162;-88
2022/02/13 01:54:54;;;;;;;33.17;14.77;;;;;;;-1.54;95.22;101441.39;3601758;79;32815;-87
2022/02/13 01:59:56;;;;;;;33.40;14.90;;;;;;;-1.55;95.34;101438.40;3592150;80;99152;-87
2022/02/13 02:04:57;;;;;;;34.87;14.73;;;;;;;-1.56;95.38;101431.39;3572756;80;99081;-87
2022/02/13 02:09:58;;;;;;;33.80;15.37;;;;;;;-1.58;95.49;101427.60;3588713;79;99243;-88
2022/02/13 02:14:59;;;;;;;31.97;14.27;;;;;;;-1.59;95.59;101419.80;3594438;80;99644;-88
2022/02/13 02:20:00;;;;;;;37.73;16.27;;;;;;;-1.59;95.82;101415.75;3593261;78;99902;-88
2022/02/13 02:25:02;;;;;;;35.60;15.30;;;;;;;-1.60;95.62;101412.80;3569316;80;32253;-88
2022/02/13 02:30:04;;;;;;;34.87;14.87;;;;;;;-1.62;95.62;101403.61;3585146;79;99406;-88
2022/02/13 02:35:06;;;;;;;36.60;16.63;;;;;;;-1.64;96.14;101392.27;3533743;81;99050;-87
2022/02/13 02:40:08;;;;;;;36.80;14.87;;;;;;;-1.65;95.88;101389.30;3639084;79;99082;-88
2022/02/13 02:45:13;;;;;;;38.23;15.90;;;;;;;-1.66;96.01;101379.59;3582638;80;99253;-88
2022/02/13 02:50:14;;;;;;;38.28;17.40;;;;;;;-1.69;96.36;101378.77;3523051;81;99327;-88
2022/02/13 02:55:15;;;;;;;37.17;15.65;;;;;;;-1.71;96.47;101362.06;3605590;79;98300;-88
2022/02/13 03:00:16;;;;;;;37.37;16.53;;;;;;;-1.72;96.67;101359.63;3622894;80;98689;-88
2022/02/13 03:05:17;;;;;;;34.13;17.13;;;;;;;-1.74;96.90;101365.84;3572999;81;99059;-88
2022/02/13 03:10:18;;;;;;;38.17;17.43;;;;;;;-1.76;96.57;101358.02;3604293;80;99204;-88
2022/02/13 03:15:18;;;;;;;33.57;15.10;;;;;;;-1.78;96.91;101347.23;3626809;80;99155;-88
2022/02/13 03:20:20;;;;;;;36.13;15.53;;;;;;;-1.80;96.90;101344.80;3629354;79;99309;-89
2022/02/13 03:25:21;;;;;;;36.60;15.47;;;;;;;-1.80;97.25;101345.36;3633143;80;98405;-88
2022/02/13 03:30:22;;;;;;;39.53;17.20;;;;;;;-1.80;97.28;101340.75;3632875;80;98763;-89
2022/02/13 03:35:23;;;;;;;42.70;17.10;;;;;;;-1.79;97.41;101336.17;3626435;80;99030;-87
2022/02/13 03:40:25;;;;;;;37.20;16.60;;;;;;;-1.80;97.46;101329.17;3628473;79;99128;-89
2022/02/13 03:45:26;;;;;;;32.50;15.00;;;;;;;-1.80;97.59;101324.56;3636341;80;98782;-88
2022/02/13 03:50:28;;;;;;;39.73;16.53;;;;;;;-1.80;97.43;101327.27;3631325;79;99582;-88
2022/02/13 03:55:30;;;;;;;36.87;15.90;;;;;;;-1.81;97.48;101318.91;3632353;80;99297;-88
2022/02/13 04:00:31;;;;;;;36.27;16.07;;;;;;;-1.81;97.48;101318.12;3620883;79;99120;-88
2022/02/13 04:05:32;;;;;;;38.07;16.23;;;;;;;-1.83;97.30;101310.82;3636803;79;99087;-88
2022/02/13 04:10:33;;;;;;;34.77;16.50;;;;;;;-1.84;97.37;101309.20;3623273;79;98615;-88
2022/02/13 04:15:34;;;;;;;36.03;16.00;;;;;;;-1.85;97.39;101304.37;3624099;79;99138;-88
2022/02/13 04:20:34;;;;;;;38.60;17.42;;;;;;;-1.85;97.65;101304.37;3631964;79;98714;-88
2022/02/13 04:25:37;;;;;;;36.87;16.30;;;;;;;-1.87;97.39;101298.98;3640912;79;99596;-89
2022/02/13 04:30:38;;;;;;;35.33;16.13;;;;;;;-1.90;97.48;101285.50;3629825;79;98840;-87
2022/02/13 04:35:40;;;;;;;36.40;16.50;;;;;;;-1.90;97.73;101277.94;3638750;80;99093;-88
2022/02/13 04:40:41;;;;;;;39.13;16.70;;;;;;;-1.93;97.54;101279.28;3634364;79;98937;-88
2022/02/13 04:45:42;;;;;;;39.90;16.70;;;;;;;-1.95;97.74;101270.67;3630446;79;99147;-87
2022/02/13 04:50:43;;;;;;;36.30;17.03;;;;;;;-1.95;97.90;101263.93;3627838;79;99174;-89
2022/02/13 04:55:44;;;;;;;34.77;15.87;;;;;;;-1.97;98.23;101262.03;3638202;79;99197;-88
2022/02/13 05:00:45;;;;;;;39.70;16.93;;;;;;;-2.02;98.32;101257.99;3631976;79;99090;-88
2022/02/13 05:05:46;;;;;;;35.70;16.87;;;;;;;-2.03;98.26;101247.50;3639889;79;98935;-88
2022/02/13 05:10:48;;;;;;;36.80;16.33;;;;;;;-2.07;98.39;101232.39;3631197;79;98920;-87
2022/02/13 05:15:48;;;;;;;36.93;16.77;;;;;;;-2.08;98.32;101229.98;3642344;79;99178;-88
2022/02/13 05:20:49;;;;;;;39.63;18.77;;;;;;;-2.12;98.26;101223.52;3634522;79;99522;-87
2022/02/13 05:25:50;;;;;;;36.03;16.40;;;;;;;-2.15;98.39;101217.31;3636547;79;99214;-87
2022/02/13 05:30:51;;;;;;;37.70;15.27;;;;;;;-2.18;98.50;101197.09;3627323;79;98823;-87
2022/02/13 05:35:52;;;;;;;39.27;18.13;;;;;;;-2.19;98.73;101202.78;3646503;79;99041;-89
2022/02/13 05:40:53;;;;;;;37.30;16.00;;;;;;;-2.23;98.60;101197.14;3634337;79;98871;-87
2022/02/13 05:45:56;;;;;;;32.93;16.70;;;;;;;-2.27;98.63;101197.41;3614377;80;99207;-87
2022/02/13 05:50:56;;;;;;;37.70;17.00;;;;;;;-2.29;98.76;101204.94;3630677;80;99564;-87
2022/02/13 05:55:57;;;;;;;33.40;16.10;;;;;;;-2.29;98.91;101206.85;3646679;79;99227;-87
2022/02/13 06:00:58;;;;;;;34.43;15.13;;;;;;;-2.29;99.16;101211.68;3636228;79;98714;-87
2022/02/13 06:05:59;;;;;;;35.10;15.87;;;;;;;-2.30;98.98;101208.73;3633891;79;99045;-87
2022/02/13 06:11:00;;;;;;;38.10;16.20;;;;;;;-2.32;99.01;101206.03;3634866;80;98985;-87
2022/02/13 06:16:01;;;;;;;36.42;16.60;;;;;;;-2.33;99.39;101200.38;3638334;79;99125;-87
2022/02/13 06:21:04;;;;;;;38.77;17.17;;;;;;;-2.35;99.35;101195.81;3630119;79;99204;-87
2022/02/13 06:26:04;;;;;;;36.77;16.37;;;;;;;-2.38;99.33;101189.08;3636463;79;99152;-87
2022/02/13 06:31:05;;;;;;;42.83;18.37;;;;;;;-2.40;99.24;101187.73;3629744;79;98819;-87
2022/02/13 06:36:07;;;;;;;38.50;16.57;;;;;;;-2.45;99.40;101196.66;3636987;80;98814;-87
2022/02/13 06:41:08;;;;;;;55.17;22.90;;;;;;;-2.64;99.30;101161.91;3627156;79;99633;-86
2022/02/13 06:46:09;;;;;;;43.47;20.47;;;;;;;-2.52;99.45;101175.89;3636667;79;99229;-86
2022/02/13 06:51:10;;;;;;;46.65;20.12;;;;;;;-2.54;99.38;101168.63;3620203;79;99142;-87
2022/02/13 06:56:13;;;;;;;46.17;20.70;;;;;;;-2.59;99.65;101163.25;3638729;79;99306;-87
2022/02/13 07:01:14;;;;;;;58.50;23.00;;;;;;;-2.56;99.98;101167.28;3620380;80;99254;-88
2022/02/13 07:06:15;;;;;;;46.93;20.50;;;;;;;-2.52;100.00;101167.02;3602770;80;33015;-88
2022/02/13 07:11:16;;;;;;;43.60;17.23;;;;;;;-2.50;100.00;101164.84;3613087;80;99160;-88
2022/02/13 07:16:17;;;;;;;38.50;17.63;;;;;;;-2.44;100.00;101161.06;3635919;79;99302;-88
2022/02/13 07:21:18;;;;;;;43.17;20.70;;;;;;;-2.39;100.00;101150.27;3625877;80;99694;-88
2022/02/13 07:26:20;;;;;;;40.43;20.33;;;;;;;-2.34;100.00;101143.52;3576800;80;99017;-88
2022/02/13 07:31:22;;;;;;;38.80;17.57;;;;;;;-2.26;100.00;101138.89;3578055;81;99963;-88
2022/02/13 07:36:23;;;;;;;39.97;17.93;;;;;;;-2.17;100.00;101121.89;3606965;80;33045;-87
2022/02/13 07:41:26;;;;;;;33.55;16.65;;;;;;;-2.07;100.00;101118.33;3608237;80;99113;-88
2022/02/13 07:46:27;;;;;;;31.30;14.67;;;;;;;-1.95;100.00;101114.77;3636118;80;99300;-88
2022/02/13 07:51:28;;;;;;;35.47;16.80;;;;;;;-1.84;100.00;101110.39;3627977;80;99355;-89
2022/02/13 07:56:31;;;;;;;31.57;14.63;;;;;;;-1.70;100.00;101111.94;3631105;80;99264;-87
2022/02/13 08:01:32;;;;;;;30.17;15.13;;;;;;;-1.51;100.00;101104.77;3610030;80;99401;-88
2022/02/13 08:06:33;;;;;;;36.80;15.27;;;;;;;-1.36;100.00;101107.37;3630769;80;33050;-87
2022/02/13 08:11:34;;;;;;;33.60;14.40;;;;;;;-1.21;100.00;101094.54;3628645;79;99794;-86
2022/02/13 08:16:35;;;;;;;32.93;15.63;;;;;;;-1.01;100.00;101097.07;3615668;79;99107;-87
2022/02/13 08:21:36;;;;;;;29.73;14.50;;;;;;;-0.75;99.75;101084.11;3614980;80;99271;-87
2022/02/13 08:26:37;;;;;;;31.67;14.97;;;;;;;-0.53;99.07;101078.47;3616136;80;99077;-84
2022/02/13 08:31:38;;;;;;;29.03;13.80;;;;;;;-0.36;98.45;101079.59;3627407;80;98987;-86
2022/02/13 08:36:38;;;;;;;30.30;14.00;;;;;;;-0.13;98.21;101067.71;3605175;78;29807;-86
2022/02/13 08:41:39;;;;;;;37.03;15.77;;;;;;;0.08;97.75;101077.95;3589410;80;98818;-85
2022/02/13 08:46:40;;;;;;;32.95;16.52;;;;;;;0.28;97.91;101075.75;3644714;79;99072;-86
2022/02/13 09:10:25;;;;;;;27.73;13.90;;;;;;;2.18;96.74;101007.02;3597219;80;98432;-87
2022/02/13 09:15:28;;;;;;;33.23;16.30;;;;;;;2.88;95.61;101016.69;3631141;80;98897;-86
2022/02/13 09:25:33;;;;;;;31.37;15.72;;;;;;;3.81;91.49;100999.89;3605562;80;33122;-85
2022/02/13 09:30:34;;;;;;;30.77;14.77;;;;;;;4.02;91.00;100998.16;3596163;80;98890;-85
2022/02/13 09:35:35;;;;;;;26.83;14.37;;;;;;;4.52;89.74;100999.27;3605867;80;98690;-85
2022/02/13 09:40:36;;;;;;;24.25;11.90;;;;;;;5.04;90.79;100989.84;3589871;81;98956;-86
2022/02/13 09:45:42;;;;;;;27.33;14.27;;;;;;;5.36;84.11;100991.97;3595318;80;98818;-86
2022/02/13 09:50:43;;;;;;;25.77;11.80;;;;;;;5.49;85.21;100986.83;3584980;80;98843;-88
2022/02/13 09:55:45;;;;;;;32.10;14.15;;;;;;;5.80;81.85;100980.50;3599617;80;99469;-88
2022/02/13 10:01:02;;;;;;;25.35;13.28;;;;;;;6.00;83.75;100966.06;3593638;80;98710;-92
2022/02/13 10:06:16;;;;;;;;;;;;;;;6.15;80.36;100972.27;3592598;80;99170;-90
2022/02/13 10:11:26;;;;;;;25.62;13.05;;;;;;;6.40;78.43;100963.86;3602714;80;84493;-87
2022/02/13 10:16:37;;;;;;;20.80;11.22;;;;;;;6.37;79.44;100964.52;3605917;80;98121;-88
2022/02/13 10:21:52;;;;;;;22.48;10.48;;;;;;;6.45;77.98;100951.35;3592508;81;98149;-91
2022/02/13 10:27:09;;;;;;;22.87;11.03;;;;;;;6.57;77.92;100944.55;3621154;78;98930;-87
2022/02/13 10:32:25;;;;;;;23.52;10.98;;;;;;;6.74;78.08;100931.23;3620094;78;98512;-91
2022/02/13 10:37:52;;;;;;;20.08;10.23;;;;;;;7.12;77.88;100924.91;3573173;80;98513;-89
2022/02/13 10:43:07;;;;;;;23.45;10.65;;;;;;;7.46;77.47;100901.15;3592643;80;98520;-86
2022/02/13 10:48:28;;;;;;;23.47;11.60;;;;;;;7.59;75.45;100919.95;3567929;81;98472;-89
2022/02/13 10:53:14;;;;;;;19.40;9.98;;;;;;;7.48;73.21;100896.14;3551339;81;99159;-89
2022/02/13 10:58:16;;;;;;;17.67;8.93;;;;;;;7.64;73.47;100899.77;3604753;80;99083;-89
2022/02/13 11:03:22;;;;;;;17.40;9.60;;;;;;;7.74;71.86;100895.19;3568089;82;98342;-91
2022/02/13 11:08:28;;;;;;;21.60;9.33;;;;;;;7.63;69.92;100892.11;3558430;82;97814;-87
2022/02/13 11:13:34;;;;;;;20.82;10.23;;;;;;;7.52;69.47;100879.26;3524193;83;25748;-89
2022/02/13 12:08:35;;;;;;;18.30;7.60;;;;;;;6.86;60.18;100828.66;3462716;83;98444;-90
2022/02/13 12:13:37;;;;;;;16.00;8.20;;;;;;;6.74;62.54;100821.83;3470497;83;98615;-96
2022/02/13 12:30:53;;;;;;;16.23;8.00;;;;;;;6.65;63.07;100823.30;3453154;82;98444;-94
2022/02/13 13:31:52;;;;;;;15.45;7.65;;;;;;;6.26;60.99;100750.70;3478634;82;98709;-90
2022/02/13 13:36:54;;;;;;;16.10;7.37;;;;;;;6.25;61.63;100738.18;3471649;83;98666;-93
2022/02/13 13:55:08;;;;;;;17.45;7.20;;;;;;;6.24;61.70;100738.77;3423844;84;98867;-93
2022/02/13 14:00:12;;;;;;;20.35;9.25;;;;;;;6.23;61.27;100748.66;3405783;84;98711;-91
2022/02/13 14:05:13;;;;;;;15.45;6.95;;;;;;;6.23;62.09;100746.70;3384524;83;99037;-88
2022/02/13 14:10:15;;;;;;;15.57;8.10;;;;;;;6.23;63.24;100747.30;3390906;84;99107;-92
2022/02/13 14:15:18;;;;;;;17.83;7.43;;;;;;;6.19;62.64;100725.32;3413138;84;31672;-93
2022/02/13 14:20:21;;;;;;;14.47;7.43;;;;;;;6.19;62.64;100725.32;3389733;85;98644;-94
2022/02/13 14:25:22;;;;;;;20.77;8.35;;;;;;;6.14;61.84;100721.45;3449008;83;98613;-88
2022/02/13 14:30:23;;;;;;;15.73;7.40;;;;;;;6.12;63.46;100704.57;3487316;83;98728;-90
2022/02/13 14:35:24;;;;;;;16.33;6.90;;;;;;;6.11;63.45;100704.94;3442827;83;98746;-89
2022/02/13 14:53:39;;;;;;;15.78;7.97;;;;;;;6.01;64.39;100689.77;3460422;83;99051;-92
2022/02/13 15:35:36;;;;;;;26.00;10.63;;;;;;;5.77;65.32;100635.09;3463060;83;97888;-90
2022/02/13 15:40:39;;;;;;;21.23;9.00;;;;;;;5.69;64.84;100629.17;3459754;82;99047;-93
2022/02/13 15:45:41;;;;;;;15.15;7.58;;;;;;;5.64;64.80;100611.65;3472957;83;33145;-89
2022/02/13 15:50:44;;;;;;;22.58;10.40;;;;;;;5.58;64.51;100608.11;3436285;83;98575;-93
2022/02/13 15:55:45;;;;;;;21.80;10.15;;;;;;;5.48;65.45;100601.16;3463967;83;98700;-93
2022/02/13 16:00:46;;;;;;;15.73;7.83;;;;;;;5.37;66.17;100596.46;3448917;83;98881;-92
2022/02/13 16:05:50;;;;;;;38.93;16.13;;;;;;;5.26;66.72;100599.39;3469191;82;98773;-92
2022/02/13 16:10:52;;;;;;;35.00;14.90;;;;;;;5.14;67.50;100593.91;3459405;83;99244;-92
2022/02/13 16:15:55;;;;;;;27.40;12.23;;;;;;;5.02;67.84;100590.56;3451967;83;99420;-92
2022/02/13 16:40:55;;;;;;;36.38;15.63;;;;;;;4.57;69.86;100577.98;3459373;83;100248;-92
2022/02/13 17:40:31;;;;;;;46.53;22.70;;;;;;;3.36;74.48;100553.19;3450079;83;98544;-89
2022/02/13 17:58:18;;;;;;;48.85;24.02;;;;;;;3.04;75.74;100555.13;3503194;81;98783;-89
2022/02/13 18:10:15;;;;;;;43.48;23.00;;;;;;;2.86;76.23;100541.34;3448001;82;99042;-90
2022/02/13 18:39:20;;;;;;;39.18;18.45;;;;;;;2.27;78.13;100521.02;3503560;81;99004;-90
2022/02/13 18:44:23;;;;;;;37.45;19.70;;;;;;;2.20;78.45;100506.55;3516502;82;99448;-90
2022/02/13 19:32:09;;;;;;;52.62;22.58;;;;;;;1.72;81.78;100479.31;3511268;82;99325;-87
2022/02/13 19:37:10;;;;;;;49.43;22.47;;;;;;;1.69;82.17;100481.31;3499123;82;98778;-93
2022/02/13 19:42:14;;;;;;;47.67;21.90;;;;;;;1.66;82.44;100481.94;3506670;82;98844;-91
2022/02/13 19:47:20;;;;;;;43.20;21.75;;;;;;;1.66;82.62;100491.42;3460468;83;98825;-91
2022/02/13 19:52:21;;;;;;;37.23;17.90;;;;;;;1.64;82.89;100486.31;3461613;83;98665;-92
2022/02/13 19:57:22;;;;;;;42.73;19.80;;;;;;;1.62;83.15;100483.12;3449588;83;98729;-91
2022/02/13 21:21:42;;;;;;;46.35;22.13;;;;;;;0.92;84.03;100424.70;3459259;82;98940;-89
2022/02/13 21:58:41;;;;;;;32.35;14.43;;;;;;;0.88;84.60;100403.44;3397679;84;99118;-89
2022/02/13 22:03:41;;;;;;;33.78;14.05;;;;;;;0.88;85.02;100398.80;3409656;84;98814;-90
2022/02/13 22:08:44;;;;;;;31.37;14.38;;;;;;;0.88;85.24;100387.96;3400530;83;98959;-89
2022/02/13 22:13:46;;;;;;;30.30;13.35;;;;;;;0.89;85.41;100387.41;3471793;82;98853;-91
2022/02/13 22:18:47;;;;;;;33.08;14.55;;;;;;;0.89;85.63;100384.13;3467217;82;98896;-91
2022/02/13 22:23:48;;;;;;;26.73;12.20;;;;;;;0.90;85.80;100379.53;3499199;83;99358;-89
2022/02/13 22:53:50;;;;;;;30.40;13.80;;;;;;;0.97;86.59;100371.19;3468387;83;97833;-90
2022/02/13 23:17:17;;;;;;;29.67;12.88;;;;;;;0.96;86.99;100370.95;3460643;83;98860;-89
2022/02/13 23:34:47;;;;;;;27.85;12.18;;;;;;;0.96;86.94;100364.17;3465829;82;98729;-91
2022/02/13 23:39:48;;;;;;;29.10;12.67;;;;;;;0.95;86.93;100361.77;3466794;83;98667;-90
2022/02/13 23:44:49;;;;;;;26.60;10.97;;;;;;;0.94;86.91;100358.25;3462179;82;98787;-89
